Weather reports worldwide

Advertisment
Bielsa, Spain (8103): temperature & dewpoint: 30.03.2020 22:00:00 - 05.04.2020 22:00:00 (CEST)Bielsa, Spain (8103): wind speed & gusts: 30.03.2020 22:00:00 - 05.04.2020 22:00:00 (CEST)Bielsa, Spain (8103): wind direction: 30.03.2020 22:00:00 - 05.04.2020 22:00:00 (CEST)Bielsa, Spain (8103): visibility: 30.03.2020 22:00:00 - 05.04.2020 22:00:00 (CEST)Bielsa, Spain (8103): sunshine duration: 30.03.2020 22:00:00 - 05.04.2020 22:00:00 (CEST)Bielsa, Spain (8103): precipitation: 30.03.2020 22:00:00 - 05.04.2020 22:00:00 (CEST)
Date & Time tt [°C] td [°C] ff [km/h] ff [kn] fx [km/h] fx [kn] dd vv [km] sd [min] rr [mm]
05.04.2020 22:00:00 - - - - - - - - - -
05.04.2020 21:00:00 10,8 2,1 4 2 18 10 S 20 0 0,0
05.04.2020 20:00:00 12,4 0,2 8 4 27 15 SE 20 0 -
05.04.2020 19:00:00 13,7 0,0 6 3 21 11 SE 20 19 0,0
05.04.2020 18:00:00 16,4 -1,2 10 5 26 14 SSE 20 60 0,0
05.04.2020 17:00:00 16,8 0,0 11 6 28 15 SE 20 60 0,0
05.04.2020 16:00:00 16,8 1,3 10 5 29 16 SE 20 60 0,0
05.04.2020 15:00:00 16,6 2,7 10 5 35 19 SE 20 60 0,0
05.04.2020 14:00:00 16,0 2,5 13 7 34 19 SSE 20 60 -
05.04.2020 13:00:00 15,4 2,5 9 5 23 13 ESE 20 60 0,0
05.04.2020 12:00:00 12,9 2,1 8 5 27 15 SE 20 60 0,0
05.04.2020 11:00:00 9,4 2,1 5 3 17 9 SE 20 60 0,0
05.04.2020 10:00:00 5,7 1,9 1 1 6 4 E 20 45 0,0
05.04.2020 09:00:00 1,9 1,3 3 1 14 8 N 20 0 0,0
05.04.2020 08:00:00 1,7 1,1 4 2 17 9 NW 20 0 -
05.04.2020 07:00:00 1,8 1,1 4 2 12 7 WNW 20 0 0,0
05.04.2020 06:00:00 2,4 1,5 3 2 6 4 NW 20 0 0,0
05.04.2020 05:00:00 3,4 2,3 3 2 6 4 W 20 0 0,0
05.04.2020 04:00:00 4,5 3,2 3 2 5 3 NNW 20 0 0,0
05.04.2020 03:00:00 5,4 3,4 3 1 8 4 WNW 20 0 0,0
05.04.2020 02:00:00 5,7 3,9 3 2 10 5 NW 20 0 -
05.04.2020 01:00:00 4,7 3,4 3 1 11 6 NW 20 0 0,0
05.04.2020 00:00:00 5,5 3,6 2 1 5 3 NW 20 0 0,0
04.04.2020 23:00:00 6,5 3,8 3 2 6 3 NW 20 0 0,0
04.04.2020 22:00:00 8,1 4,3 4 2 18 10 NW 20 0 0,0
04.04.2020 21:00:00 11,0 4,3 3 1 28 15 SSW 20 0 0,0
04.04.2020 20:00:00 12,5 3,8 10 5 31 17 SE 20 0 -
04.04.2020 19:00:00 13,9 4,1 10 5 30 16 ESE 20 16 0,0
04.04.2020 18:00:00 16,6 4,6 8 4 34 19 SE 20 60 0,0
04.04.2020 17:00:00 17,2 5,1 11 6 34 18 SE 20 60 0,0
04.04.2020 16:00:00 17,1 4,5 11 6 37 20 SSE 20 60 0,0
04.04.2020 15:00:00 16,9 4,8 13 7 40 22 SSE 20 60 0,0
04.04.2020 14:00:00 16,2 4,6 9 5 35 19 SE 20 60 -
04.04.2020 13:00:00 14,8 4,1 9 5 33 18 SE 20 60 0,0
04.04.2020 12:00:00 13,0 1,9 8 5 24 13 SSE 20 60 0,0
04.04.2020 11:00:00 8,3 0,2 5 3 12 6 ESE 20 60 0,0
04.04.2020 10:00:00 4,2 -0,5 2 1 6 3 NNW 20 42 0,0
04.04.2020 09:00:00 -0,5 -1,4 0 0 14 8 NW 20 0 0,0
04.04.2020 08:00:00 -0,4 -1,2 2 1 15 8 WNW 20 0 -
04.04.2020 07:00:00 -0,2 -1,0 3 2 14 8 WNW 20 0 0,0
04.04.2020 06:00:00 0,3 -0,5 5 3 14 7 WNW 20 0 0,0
04.04.2020 05:00:00 0,7 -0,3 3 2 14 7 W 20 0 0,0
04.04.2020 04:00:00 1,0 0,0 4 2 12 6 WNW 20 0 0,0
04.04.2020 03:00:00 1,3 0,2 3 2 9 5 WNW 20 0 0,0
04.04.2020 02:00:00 1,7 0,4 2 1 16 8 WSW 20 0 -
04.04.2020 01:00:00 2,4 0,9 4 2 13 7 WNW 20 0 0,0
04.04.2020 00:00:00 3,1 1,1 3 2 8 4 WNW 20 0 0,0
03.04.2020 23:00:00 4,1 1,9 3 2 13 7 NW 20 0 0,0
03.04.2020 22:00:00 5,6 2,3 4 2 12 6 NW 20 0 0,0
03.04.2020 21:00:00 6,7 3,2 3 2 8 4 NW 20 0 0,0
03.04.2020 20:00:00 8,7 3,9 3 1 9 5 WNW 20 0 -
03.04.2020 19:00:00 11,5 3,8 6 3 19 11 S 20 14 0,0
03.04.2020 18:00:00 14,2 3,0 10 5 24 13 SSE 20 60 0,0
03.04.2020 17:00:00 15,7 3,8 10 5 30 16 SE 20 60 0,0
03.04.2020 16:00:00 16,1 2,5 11 6 33 18 SE 20 60 0,0
03.04.2020 15:00:00 16,3 0,4 10 5 27 15 SE 20 60 0,0
03.04.2020 14:00:00 15,4 0,4 10 5 25 14 SE 20 60 -
03.04.2020 13:00:00 14,1 -2,0 10 5 24 13 SE 20 60 0,0
03.04.2020 12:00:00 12,1 -3,6 13 7 31 17 NW 20 60 0,0
03.04.2020 11:00:00 9,9 -3,9 16 9 30 16 NW 20 58 0,0
03.04.2020 10:00:00 8,5 -2,7 16 9 29 16 NW 20 39 0,0
03.04.2020 09:00:00 2,8 -1,7 3 2 29 16 S 20 0 0,0
03.04.2020 08:00:00 3,5 -2,5 13 7 27 15 N 20 0 -
03.04.2020 07:00:00 2,7 -2,0 10 5 25 13 NNW 20 0 0,0
03.04.2020 06:00:00 3,1 -2,0 7 4 29 16 NNW 20 0 0,0
03.04.2020 05:00:00 3,8 -1,7 14 7 30 16 N 20 0 0,0
03.04.2020 04:00:00 4,2 -1,7 11 6 29 16 NNW 20 0 0,0
03.04.2020 03:00:00 4,8 -1,7 14 8 29 16 N 20 0 0,0
03.04.2020 02:00:00 4,9 -1,4 9 5 27 15 NNW 20 0 -
03.04.2020 01:00:00 5,1 -1,2 9 5 28 15 NNW 20 0 0,0
03.04.2020 00:00:00 5,8 -1,4 10 5 23 12 N 20 0 0,0
02.04.2020 23:00:00 6,3 -0,5 9 5 22 12 NNW 20 0 0,0
02.04.2020 22:00:00 7,5 -1,0 9 5 23 13 NNW 20 0 0,0
02.04.2020 21:00:00 8,5 -1,0 9 5 24 13 WNW 20 0 0,0
02.04.2020 20:00:00 9,3 0,4 6 3 29 15 WNW 20 0 -
02.04.2020 19:00:00 10,7 1,1 13 7 32 17 NW 20 1 0,0
02.04.2020 18:00:00 12,1 1,1 10 5 23 13 NW 20 18 0,0
02.04.2020 17:00:00 11,8 2,3 12 6 37 20 NW 20 14 0,0
02.04.2020 16:00:00 13,2 2,7 22 12 43 23 NW 20 57 0,0
02.04.2020 15:00:00 12,7 2,5 7 4 22 12 W 20 21 0,0
02.04.2020 14:00:00 10,8 5,3 7 4 20 11 SE 20 19 -
02.04.2020 13:00:00 10,6 5,8 6 4 27 14 SE 20 46 0,0
02.04.2020 12:00:00 9,4 5,0 8 4 24 13 ESE 20 60 0,0
02.04.2020 11:00:00 8,1 4,6 5 3 14 8 SE 20 59 0,0
02.04.2020 10:00:00 6,5 3,8 3 1 6 3 NW 20 6 0,0
02.04.2020 09:00:00 5,5 4,8 1 1 14 7 WNW 20 0 0,0
02.04.2020 08:00:00 4,9 4,3 1 1 5 3 SSE 20 0 -
02.04.2020 07:00:00 4,9 4,3 1 1 4 2 WNW 20 0 0,0
02.04.2020 06:00:00 4,9 4,3 1 0 5 3 SSE 20 0 0,0
02.04.2020 05:00:00 5,0 4,3 1 1 4 2 W 20 0 0,0
02.04.2020 04:00:00 5,1 4,1 1 1 10 6 N 20 0 0,0
02.04.2020 03:00:00 5,3 4,5 5 3 18 10 SSE 20 0 0,0
02.04.2020 02:00:00 5,8 5,1 4 2 16 9 SE 20 0 -
02.04.2020 01:00:00 6,0 5,3 2 1 11 6 ESE 20 0 0,2
02.04.2020 00:00:00 6,2 5,5 3 1 9 5 SE 15 0 0,2
01.04.2020 23:00:00 6,4 5,5 3 1 10 5 ESE 20 0 0,0
01.04.2020 22:00:00 6,5 5,6 3 1 9 5 ESE 20 0 0,0
01.04.2020 21:00:00 6,7 5,8 4 2 10 5 E 20 0 0,0
01.04.2020 20:00:00 7,2 6,1 2 1 7 4 ESE 20 0 -
01.04.2020 19:00:00 7,5 6,1 4 2 12 6 E 5 0 1,4
01.04.2020 18:00:00 8,3 6,2 5 3 16 9 ESE 20 0 0,6
01.04.2020 17:00:00 8,6 5,9 6 3 24 13 SE 20 0 0,2
01.04.2020 16:00:00 9,4 5,5 9 5 28 15 ESE 20 0 0,0
01.04.2020 15:00:00 10,2 5,8 9 5 28 15 ESE 20 0 0,0
01.04.2020 14:00:00 10,0 5,1 5 3 22 12 SE 20 0 -
01.04.2020 13:00:00 10,3 6,1 7 4 18 10 SE 20 0 0,0
01.04.2020 12:00:00 9,8 5,1 4 2 9 5 WNW 20 15 0,0
01.04.2020 11:00:00 8,1 5,8 3 1 19 10 SE 20 0 0,0
01.04.2020 10:00:00 7,2 4,8 7 4 20 11 NW 20 9 0,0
01.04.2020 09:00:00 5,3 4,5 7 4 17 9 N 20 0 0,0
01.04.2020 08:00:00 4,8 4,3 4 2 10 6 N 20 0 -
01.04.2020 07:00:00 4,6 4,1 2 1 5 3 WNW 20 0 0,0
01.04.2020 06:00:00 4,8 4,3 4 2 8 4 SE 20 0 0,0
01.04.2020 05:00:00 4,8 4,3 1 1 13 7 W 20 0 0,0
01.04.2020 04:00:00 4,8 4,3 2 1 14 8 SE 20 0 0,0
01.04.2020 03:00:00 4,9 4,5 2 1 5 3 WNW 15 0 0,0
01.04.2020 02:00:00 5,0 4,5 1 1 3 2 WNW 20 0 -
01.04.2020 01:00:00 5,1 4,5 1 1 4 2 NNE 20 0 0,0
01.04.2020 00:00:00 5,3 4,6 1 1 5 3 W 20 0 0,1
31.03.2020 23:00:00 5,4 4,8 3 1 7 4 ESE 16 0 0,6
31.03.2020 22:00:00 5,6 4,8 3 2 7 4 E 12 0 0,6
31.03.2020 21:00:00 5,9 5,0 3 1 16 9 SE 11 0 0,6
31.03.2020 20:00:00 6,3 5,3 4 2 18 10 ESE 12 0 -
31.03.2020 19:00:00 7,0 5,8 4 2 13 7 ESE 10 0 0,0
31.03.2020 18:00:00 7,7 5,6 4 2 15 8 SE 20 0 0,0
31.03.2020 17:00:00 7,8 5,3 2 1 9 5 ESE 20 0 0,0
31.03.2020 16:00:00 7,8 5,5 5 3 12 6 SE 20 0 0,0
31.03.2020 15:00:00 7,6 5,1 2 1 17 9 ESE 20 0 0,0
31.03.2020 14:00:00 7,1 4,6 6 3 16 9 SE 20 0 -
31.03.2020 13:00:00 7,4 4,1 1 1 9 5 N 20 22 0,0
31.03.2020 12:00:00 5,1 3,4 5 3 16 9 NW 20 0 0,0
31.03.2020 11:00:00 3,5 2,3 6 3 24 13 WNW 20 0 0,0
31.03.2020 10:00:00 2,2 1,7 9 5 19 11 N 20 0 0,0
31.03.2020 09:00:00 1,5 1,1 2 1 5 3 WNW 20 0 0,0
31.03.2020 08:00:00 1,2 0,9 2 1 16 8 WNW 20 0 -
31.03.2020 07:00:00 1,3 0,9 3 1 15 8 SSE 9 0 0,0
31.03.2020 06:00:00 0,9 0,4 1 1 16 8 WNW 13 0 0,0
31.03.2020 05:00:00 0,8 0,4 1 1 4 2 SE 11 0 0,0
31.03.2020 04:00:00 0,6 0,2 1 1 14 7 N 5 0 0,0
31.03.2020 03:00:00 0,6 0,2 1 1 3 2 ESE 2,2 0 0,0
31.03.2020 02:00:00 0,7 0,2 0 0 4 2 NW 1,5 0 -
31.03.2020 01:00:00 0,8 0,2 1 1 3 2 W 2,9 0 0,0
31.03.2020 00:00:00 0,9 0,0 1 0 3 2 SSW 3,3 0 0,0
30.03.2020 23:00:00 0,9 0,0 1 1 8 5 WNW 3,0 0 0,2
30.03.2020 22:00:00 1,4 -0,5 4 2 22 12 SSE 6 0 0,0

tt = temperature
td = dewpoint
ff = wind speed
fx = gusts
dd = wind direction
vv = visibility
sd = sunshine duration
rr = precipitation

Next stations